createdAt,value
2019-05-09T00:00:43.936Z,12.53
2019-05-09T00:03:20.126Z,12.53
2019-05-09T00:05:56.083Z,12.54
2019-05-09T00:08:33.533Z,12.58
2019-05-09T00:11:09.633Z,12.56
2019-05-09T00:13:45.592Z,12.54
2019-05-09T00:16:23.575Z,12.54
2019-05-09T00:18:59.655Z,12.53
2019-05-09T00:21:39.873Z,12.52
2019-05-09T00:24:15.877Z,12.52
2019-05-09T00:26:53.354Z,12.54
2019-05-09T00:29:33.316Z,12.53
2019-05-09T00:32:13.756Z,12.51
2019-05-09T00:34:53.263Z,12.51
2019-05-09T00:40:20.407Z,12.48
2019-05-09T00:42:56.232Z,12.45
2019-05-09T00:45:39.768Z,12.46
2019-05-09T00:48:17.568Z,12.45
2019-05-09T00:50:54.458Z,12.44
2019-05-09T00:53:30.597Z,12.41
2019-05-09T00:56:06.554Z,12.42
2019-05-09T00:58:44.111Z,12.43
2019-05-09T01:01:20.835Z,12.43
2019-05-09T01:03:56.779Z,12.41
2019-05-09T01:06:34.081Z,12.39
2019-05-09T01:09:10.238Z,12.39
2019-05-09T01:11:46.193Z,12.36
2019-05-09T01:14:23.394Z,12.38
2019-05-09T01:16:59.743Z,12.33
2019-05-09T01:19:35.688Z,12.34
2019-05-09T01:22:13.167Z,12.34
2019-05-09T01:24:49.343Z,12.33
2019-05-09T01:27:25.309Z,12.30
2019-05-09T01:30:01.265Z,12.31
2019-05-09T01:32:48.601Z,12.29
2019-05-09T01:35:24.546Z,12.29
2019-05-09T01:38:00.490Z,12.28
2019-05-09T01:40:36.447Z,12.27
2019-05-09T01:43:13.847Z,12.27
2019-05-09T01:45:50.112Z,12.30
2019-05-09T01:48:26.058Z,12.31
2019-05-09T01:51:03.244Z,12.30
2019-05-09T01:53:41.055Z,12.32
2019-05-09T01:56:16.981Z,12.36
2019-05-09T01:58:53.810Z,12.39
2019-05-09T02:01:30.141Z,12.39
2019-05-09T02:04:06.027Z,12.41
2019-05-09T02:06:43.869Z,12.41
2019-05-09T02:09:19.660Z,12.44
2019-05-09T02:11:55.612Z,12.50
2019-05-09T02:14:34.384Z,12.50
2019-05-09T02:17:23.144Z,12.54
2019-05-09T02:19:58.638Z,12.54
2019-05-09T02:22:35.210Z,12.58
2019-05-09T02:25:13.142Z,12.58
2019-05-09T02:27:49.157Z,12.59
2019-05-09T02:30:25.635Z,12.59
2019-05-09T02:33:04.832Z,12.61
2019-05-09T02:35:50.989Z,12.61
2019-05-09T02:38:20.038Z,12.62
2019-05-09T02:40:54.881Z,12.61
2019-05-09T02:43:30.836Z,12.62
2019-05-09T02:46:09.690Z,12.63
2019-05-09T02:48:49.359Z,12.62
2019-05-09T02:51:23.826Z,12.62
2019-05-09T02:53:59.783Z,12.62
2019-05-09T02:56:38.397Z,12.63
2019-05-09T02:59:18.968Z,12.62
2019-05-09T03:01:59.644Z,12.58
2019-05-09T03:04:38.905Z,12.57
2019-05-09T03:07:13.297Z,12.57
2019-05-09T03:09:49.252Z,12.54
2019-05-09T03:12:34.499Z,12.55
2019-05-09T03:15:03.136Z,12.56
2019-05-09T03:17:39.069Z,12.53
2019-05-09T03:20:18.197Z,12.54
2019-05-09T03:22:58.069Z,12.53
2019-05-09T03:25:33.782Z,12.51
2019-05-09T03:28:11.291Z,12.50
2019-05-09T03:30:50.060Z,12.49
2019-05-09T03:33:29.560Z,12.48
2019-05-09T03:36:04.167Z,12.48
2019-05-09T03:38:40.128Z,12.50
2019-05-09T03:41:17.746Z,12.52
2019-05-09T03:43:53.879Z,12.52
2019-05-09T03:46:49.815Z,12.50
2019-05-09T03:49:25.763Z,12.50
2019-05-09T03:52:01.727Z,12.53
2019-05-09T03:54:37.698Z,12.48
2019-05-09T03:57:18.340Z,12.46
2019-05-09T03:59:54.305Z,12.47
2019-05-09T04:02:30.262Z,12.47
2019-05-09T04:05:08.142Z,12.46
2019-05-09T04:07:44.325Z,12.50
2019-05-09T04:10:20.281Z,12.54
2019-05-09T04:12:59.311Z,12.56
2019-05-09T04:15:33.925Z,12.59
2019-05-09T04:18:10.290Z,12.58
2019-05-09T04:20:48.239Z,12.58
2019-05-09T04:23:24.068Z,12.58
2019-05-09T04:26:02.650Z,12.55
2019-05-09T04:28:39.967Z,12.52
2019-05-09T04:31:17.778Z,12.50
2019-05-09T04:33:53.804Z,12.47
2019-05-09T04:36:38.659Z,12.49
2019-05-09T04:39:23.441Z,12.47
2019-05-09T04:41:55.065Z,12.46
2019-05-09T04:44:37.371Z,12.44
2019-05-09T04:47:12.007Z,12.46
2019-05-09T04:49:48.070Z,12.37
2019-05-09T04:52:24.013Z,12.39
2019-05-09T04:55:00.087Z,12.33
2019-05-09T04:57:38.150Z,12.35
2019-05-09T05:00:18.303Z,12.32
2019-05-09T05:02:55.142Z,12.24
2019-05-09T05:05:31.115Z,12.28
2019-05-09T05:08:07.597Z,12.25
2019-05-09T05:10:43.725Z,12.23
2019-05-09T05:13:26.514Z,12.22
2019-05-09T05:15:57.932Z,12.21
2019-05-09T05:18:33.947Z,12.22
2019-05-09T05:21:09.911Z,12.24
2019-05-09T05:23:50.377Z,12.23
2019-05-09T05:26:27.678Z,12.21
2019-05-09T05:29:03.842Z,12.20
2019-05-09T05:31:39.773Z,12.12
2019-05-09T05:34:18.242Z,12.04
2019-05-09T05:36:54.269Z,11.96
2019-05-09T05:39:30.202Z,11.89
2019-05-09T05:42:08.296Z,11.82
2019-05-09T05:44:44.059Z,11.75
2019-05-09T05:47:38.081Z,11.66
2019-05-09T05:50:14.567Z,11.63
2019-05-09T05:52:50.582Z,11.54
2019-05-09T05:55:27.423Z,11.52
2019-05-09T05:58:13.516Z,11.48
2019-05-09T06:00:55.639Z,11.42
2019-05-09T06:03:31.603Z,11.40
2019-05-09T06:06:08.762Z,11.37
2019-05-09T06:08:44.940Z,11.38
2019-05-09T06:11:20.898Z,11.42
2019-05-09T06:14:05.110Z,11.39
2019-05-09T06:20:30.696Z,11.48
2019-05-09T06:23:49.881Z,11.46
2019-05-09T06:26:32.884Z,11.50
2019-05-09T06:38:18.779Z,11.52
2019-05-09T06:40:55.095Z,11.47
2019-05-09T06:43:32.594Z,11.43
2019-05-09T06:46:27.750Z,11.47
2019-05-09T06:49:21.501Z,11.46
2019-05-09T06:51:42.779Z,11.43
2019-05-09T06:54:18.737Z,11.44
2019-05-09T06:56:54.696Z,11.41
2019-05-09T06:59:30.648Z,11.41
2019-05-09T07:02:08.403Z,11.37
2019-05-09T07:04:47.569Z,11.39
2019-05-09T07:07:34.402Z,11.41
2019-05-09T07:10:11.815Z,11.43
2019-05-09T07:12:48.653Z,11.48
2019-05-09T07:15:28.166Z,11.51
2019-05-09T07:18:03.759Z,11.45
2019-05-09T07:20:39.700Z,11.49
2019-05-09T07:23:17.733Z,11.43
2019-05-09T07:25:55.417Z,11.43
2019-05-09T07:28:31.326Z,11.44
2019-05-09T07:31:11.668Z,11.43
2019-05-09T07:33:48.053Z,11.46
2019-05-09T07:36:24.041Z,11.46
2019-05-09T07:38:59.998Z,11.46
2019-05-09T07:41:38.241Z,11.41
2019-05-09T07:44:13.766Z,11.45
2019-05-09T07:46:54.123Z,11.41
2019-05-09T07:49:31.203Z,11.38
2019-05-09T07:52:10.344Z,11.34
2019-05-09T07:54:44.862Z,11.32
2019-05-09T07:57:20.818Z,11.33
2019-05-09T07:59:58.444Z,11.33
2019-05-09T08:02:35.593Z,11.34
2019-05-09T08:05:14.526Z,11.31
2019-05-09T08:07:50.571Z,11.32
2019-05-09T08:10:30.624Z,11.26
2019-05-09T08:13:07.990Z,11.30
2019-05-09T08:15:41.932Z,11.28
2019-05-09T08:18:17.889Z,11.26
2019-05-09T08:20:53.836Z,11.30
2019-05-09T08:23:29.802Z,11.30
2019-05-09T08:26:08.490Z,11.26
2019-05-09T08:28:43.461Z,11.28
2019-05-09T08:31:19.412Z,11.30
2019-05-09T08:33:55.356Z,11.37
2019-05-09T08:36:31.268Z,11.41
2019-05-09T08:39:08.421Z,11.46
2019-05-09T08:41:44.555Z,11.53
2019-05-09T08:44:21.651Z,11.52
2019-05-09T08:46:57.596Z,11.51
2019-05-09T08:49:46.533Z,11.53
2019-05-09T08:52:21.899Z,11.55
2019-05-09T08:54:59.189Z,11.58
2019-05-09T08:57:37.394Z,11.68
2019-05-09T09:00:13.317Z,11.76
2019-05-09T09:02:50.239Z,11.81
2019-05-09T09:05:28.662Z,11.88
2019-05-09T09:08:03.897Z,11.97
2019-05-09T09:10:39.852Z,11.98
2019-05-09T09:13:17.511Z,11.98
2019-05-09T09:16:13.820Z,12.03
2019-05-09T09:18:31.598Z,12.14
2019-05-09T09:21:08.209Z,12.20
2019-05-09T09:23:49.722Z,12.28
2019-05-09T09:26:23.068Z,12.30
2019-05-09T09:28:59.019Z,12.45
2019-05-09T09:31:34.972Z,12.53
2019-05-09T09:34:11.033Z,12.63
2019-05-09T09:36:48.030Z,12.61
2019-05-09T09:39:24.166Z,12.64
2019-05-09T09:42:00.533Z,12.59
2019-05-09T09:44:38.782Z,12.44
2019-05-09T09:47:20.626Z,12.37
2019-05-09T09:49:55.076Z,12.37
2019-05-09T09:52:34.285Z,12.37
2019-05-09T09:55:09.133Z,12.40
2019-05-09T09:57:45.209Z,12.50
2019-05-09T10:00:43.930Z,12.45
2019-05-09T10:03:36.634Z,12.52
2019-05-09T10:06:12.576Z,12.60
2019-05-09T10:08:49.092Z,12.63
2019-05-09T10:11:25.126Z,12.72
2019-05-09T10:14:01.582Z,12.82
2019-05-09T10:16:44.897Z,12.91
2019-05-09T10:19:28.444Z,13.02
2019-05-09T10:22:23.540Z,13.16
2019-05-09T10:24:58.403Z,13.17
2019-05-09T10:27:34.121Z,13.11
2019-05-09T10:30:10.587Z,13.09
2019-05-09T10:32:47.623Z,13.08
2019-05-09T10:35:24.044Z,13.09
2019-05-09T10:38:00.009Z,13.07
2019-05-09T10:40:39.427Z,13.07
2019-05-09T10:43:35.769Z,13.01
2019-05-09T10:46:19.558Z,13.01
2019-05-09T10:48:58.609Z,12.98
2019-05-09T10:51:34.908Z,13.05
2019-05-09T10:54:10.968Z,13.16
2019-05-09T10:56:48.706Z,13.25
2019-05-09T10:59:24.814Z,13.48
2019-05-09T11:02:00.772Z,13.78
2019-05-09T11:04:37.913Z,14.03
2019-05-09T11:07:14.438Z,14.39
2019-05-09T11:09:50.383Z,14.73
2019-05-09T11:12:27.581Z,14.88
2019-05-09T11:15:03.756Z,14.98
2019-05-09T11:17:39.710Z,15.09
2019-05-09T11:20:15.642Z,15.15
2019-05-09T11:22:51.607Z,15.00
2019-05-09T11:25:27.878Z,14.98
2019-05-09T11:28:11.188Z,14.95
2019-05-09T11:30:41.618Z,14.93
2019-05-09T11:33:18.323Z,14.89
2019-05-09T11:36:14.837Z,15.05
2019-05-09T11:45:41.688Z,15.77
2019-05-09T11:48:18.686Z,15.79
2019-05-09T11:50:57.738Z,15.89
2019-05-09T11:53:32.774Z,16.10
2019-05-09T11:56:08.730Z,16.21
2019-05-09T11:58:44.686Z,16.30
2019-05-09T12:01:20.733Z,16.36
2019-05-09T12:03:57.731Z,16.29
2019-05-09T12:06:33.988Z,16.31
2019-05-09T12:09:10.051Z,16.09
2019-05-09T12:11:48.275Z,15.93
2019-05-09T12:14:23.690Z,15.77
2019-05-09T12:16:59.654Z,15.67
2019-05-09T12:19:38.039Z,15.57
2019-05-09T12:22:13.625Z,15.51
2019-05-09T12:24:49.514Z,15.50
2019-05-09T12:27:27.892Z,15.51
2019-05-09T12:30:04.875Z,15.54
2019-05-09T12:32:40.824Z,15.54
2019-05-09T12:35:59.461Z,15.42
2019-05-09T12:39:29.367Z,15.40
2019-05-09T12:42:09.178Z,15.32
2019-05-09T12:44:45.504Z,15.27
2019-05-09T12:47:21.458Z,15.27
2019-05-09T12:50:00.365Z,15.30
2019-05-09T12:52:35.109Z,15.32
2019-05-09T12:55:12.914Z,15.38
2019-05-09T12:57:49.190Z,15.52
2019-05-09T13:00:25.341Z,15.58
2019-05-09T13:03:01.405Z,15.71
2019-05-09T13:05:38.840Z,15.72
2019-05-09T13:08:15.048Z,15.77
2019-05-09T13:10:52.131Z,15.85
2019-05-09T13:13:31.780Z,15.85
2019-05-09T13:16:14.346Z,15.77
2019-05-09T13:19:07.250Z,15.68
2019-05-09T13:21:43.196Z,15.56
2019-05-09T13:24:19.812Z,15.40
2019-05-09T13:26:56.052Z,15.28
2019-05-09T13:29:31.987Z,15.22
2019-05-09T13:32:08.823Z,15.14
2019-05-09T13:34:45.045Z,15.10
2019-05-09T13:37:21.096Z,15.08
2019-05-09T13:39:57.039Z,15.00
2019-05-09T13:42:33.510Z,14.98
2019-05-09T13:45:09.773Z,14.86
2019-05-09T13:47:47.875Z,14.85
2019-05-09T13:50:23.426Z,14.85
2019-05-09T13:52:59.384Z,14.85
2019-05-09T13:55:37.928Z,14.83
2019-05-09T13:58:13.407Z,14.89
2019-05-09T14:00:59.041Z,14.91
2019-05-09T14:03:29.149Z,14.95
2019-05-09T14:06:05.107Z,15.00
2019-05-09T14:08:41.061Z,15.10
2019-05-09T14:11:19.343Z,15.17
2019-05-09T14:13:54.827Z,15.20
2019-05-09T14:16:30.782Z,15.23
2019-05-09T14:19:26.139Z,15.18
2019-05-09T14:21:45.051Z,15.16
2019-05-09T14:24:21.994Z,15.09
2019-05-09T14:26:58.373Z,15.12
2019-05-09T14:29:34.460Z,15.12
2019-05-09T14:32:10.403Z,15.09
2019-05-09T14:34:48.225Z,15.04
2019-05-09T14:37:24.065Z,14.99
2019-05-09T14:40:04.503Z,15.04
2019-05-09T14:42:39.475Z,15.04
2019-05-09T14:45:18.031Z,15.05
2019-05-09T14:47:53.432Z,14.98
2019-05-09T14:50:29.384Z,14.93
2019-05-09T14:53:07.872Z,14.97
2019-05-09T14:55:43.843Z,15.02
2019-05-09T14:58:19.909Z,14.97
2019-05-09T15:00:59.413Z,14.90
2019-05-09T15:03:33.860Z,14.83
2019-05-09T15:06:09.817Z,14.80
2019-05-09T15:08:48.098Z,14.77
2019-05-09T15:11:23.363Z,14.63
2019-05-09T15:13:59.328Z,14.68
2019-05-09T15:16:35.287Z,14.71
2019-05-09T15:19:11.623Z,14.74
2019-05-09T15:21:48.790Z,14.77
2019-05-09T15:24:28.508Z,14.81
2019-05-09T15:27:03.661Z,14.82
2019-05-09T15:29:39.611Z,14.89
2019-05-09T15:32:18.103Z,14.89
2019-05-09T15:34:53.156Z,14.91
2019-05-09T15:37:29.195Z,14.88
2019-05-09T15:40:08.403Z,14.83
2019-05-09T15:42:43.956Z,14.84
2019-05-09T15:45:19.944Z,14.87
2019-05-09T15:47:58.181Z,14.85
2019-05-09T15:50:33.440Z,14.80
2019-05-09T15:53:09.533Z,14.84
2019-05-09T15:55:47.851Z,14.81
2019-05-09T15:58:23.421Z,14.79
2019-05-09T16:00:59.324Z,14.71
2019-05-09T16:03:35.396Z,14.64
2019-05-09T16:06:11.363Z,14.53
2019-05-09T16:08:47.326Z,14.46
2019-05-09T16:11:23.267Z,14.42
2019-05-09T16:13:59.171Z,14.40
2019-05-09T16:16:35.119Z,14.37
2019-05-09T16:19:11.009Z,14.31
2019-05-09T16:21:47.774Z,14.27
2019-05-09T16:24:23.788Z,14.21
2019-05-09T16:26:59.702Z,14.16
2019-05-09T16:29:38.119Z,14.10
2019-05-09T16:32:13.261Z,14.03
2019-05-09T16:34:50.172Z,13.99
2019-05-09T16:37:28.223Z,13.97
2019-05-09T16:40:05.237Z,13.95
2019-05-09T16:42:41.162Z,13.91
2019-05-09T16:45:18.198Z,13.88
2019-05-09T16:47:54.304Z,13.88
2019-05-09T16:50:30.219Z,13.87
2019-05-09T16:53:09.044Z,13.82
2019-05-09T16:55:43.768Z,13.85
2019-05-09T16:58:20.686Z,13.80
2019-05-09T17:00:56.591Z,13.82
2019-05-09T17:03:32.483Z,13.77
2019-05-09T17:06:08.533Z,13.79
2019-05-09T17:08:44.483Z,13.77
2019-05-09T17:11:20.391Z,13.78
2019-05-09T17:13:58.419Z,13.75
2019-05-09T17:16:34.461Z,13.72
2019-05-09T17:19:10.439Z,13.73
2019-05-09T17:21:48.240Z,13.70
2019-05-09T17:24:24.219Z,13.65
2019-05-09T17:27:00.124Z,13.62
2019-05-09T17:29:38.268Z,13.61
2019-05-09T17:32:14.361Z,13.57
2019-05-09T17:34:50.250Z,13.55
2019-05-09T17:37:28.561Z,13.57
2019-05-09T17:40:04.399Z,13.55
2019-05-09T17:42:40.319Z,13.55
2019-05-09T17:45:16.437Z,13.52
2019-05-09T17:47:52.511Z,13.48
2019-05-09T17:50:28.702Z,13.41
2019-05-09T17:53:04.658Z,13.36
2019-05-09T17:55:40.573Z,13.33
2019-05-09T17:58:29.083Z,13.30
2019-05-09T18:00:54.231Z,13.29
2019-05-09T18:03:30.168Z,13.25
2019-05-09T18:06:08.309Z,13.25
2019-05-09T18:08:44.050Z,13.19
2019-05-09T18:11:19.934Z,13.19
2019-05-09T18:13:55.937Z,13.18
2019-05-09T18:16:31.918Z,13.17
2019-05-09T18:19:08.891Z,13.12
2019-05-09T18:21:50.731Z,13.12
2019-05-09T18:24:22.684Z,13.12
2019-05-09T18:26:58.765Z,13.09
2019-05-09T18:29:37.861Z,13.03
2019-05-09T18:32:29.742Z,12.99
2019-05-09T18:35:14.017Z,12.95
2019-05-09T18:37:50.136Z,12.91
2019-05-09T18:40:28.210Z,12.90
2019-05-09T18:43:04.111Z,12.88
2019-05-09T18:45:40.046Z,12.87
2019-05-09T18:48:15.966Z,12.87
2019-05-09T18:50:51.895Z,12.84
2019-05-09T18:53:27.841Z,12.80
2019-05-09T18:56:03.757Z,12.77
2019-05-09T18:58:40.684Z,12.74
2019-05-09T19:01:16.590Z,12.71
2019-05-09T19:03:52.542Z,12.72
2019-05-09T19:06:28.845Z,12.70
2019-05-09T19:09:07.221Z,12.67
2019-05-09T19:11:43.175Z,12.65
2019-05-09T19:14:20.775Z,12.65
2019-05-09T19:17:14.385Z,12.62
2019-05-09T19:19:54.801Z,12.56
2019-05-09T19:22:30.724Z,12.52
2019-05-09T19:25:07.382Z,12.45
2019-05-09T19:27:43.294Z,12.42
2019-05-09T19:30:19.350Z,12.38
2019-05-09T19:32:55.356Z,12.34
2019-05-09T19:35:31.431Z,12.30
2019-05-09T19:38:08.501Z,12.25
2019-05-09T19:40:44.575Z,12.22
2019-05-09T19:43:20.523Z,12.21
2019-05-09T19:45:56.476Z,12.18
2019-05-09T19:48:32.435Z,12.17
2019-05-09T19:51:08.396Z,12.11
2019-05-09T19:53:44.342Z,12.10
2019-05-09T19:56:20.233Z,12.11
2019-05-09T19:58:56.222Z,12.11
2019-05-09T20:01:32.138Z,12.06
2019-05-09T20:04:08.154Z,12.02
2019-05-09T20:06:44.040Z,12.00
2019-05-09T20:09:33.397Z,11.99
2019-05-09T20:12:16.945Z,11.96
2019-05-09T20:14:54.294Z,11.88
2019-05-09T20:17:30.171Z,11.89
2019-05-09T20:20:07.864Z,11.89
2019-05-09T20:22:52.367Z,11.87
2019-05-09T20:25:21.468Z,11.85
2019-05-09T20:27:57.378Z,11.81
2019-05-09T20:30:33.363Z,11.79
2019-05-09T20:33:09.299Z,11.78
2019-05-09T20:35:45.255Z,11.81
2019-05-09T20:38:22.328Z,11.86
2019-05-09T20:40:58.599Z,11.88
2019-05-09T20:43:34.755Z,11.89
2019-05-09T20:46:10.921Z,11.83
2019-05-09T20:48:47.084Z,11.78
2019-05-09T20:51:23.232Z,11.76
2019-05-09T20:53:59.409Z,11.72
2019-05-09T20:56:35.558Z,11.74
2019-05-09T20:59:11.729Z,11.72
2019-05-09T21:01:47.878Z,11.68
2019-05-09T21:04:24.144Z,11.65
2019-05-09T21:07:00.537Z,11.63
2019-05-09T21:09:37.203Z,11.62
2019-05-09T21:12:13.344Z,11.60
2019-05-09T21:14:49.503Z,11.59
2019-05-09T21:17:25.871Z,11.56
2019-05-09T21:20:02.044Z,11.54
2019-05-09T21:22:38.715Z,11.48
2019-05-09T21:25:15.075Z,11.47
2019-05-09T21:27:51.237Z,11.44
2019-05-09T21:30:27.404Z,11.46
2019-05-09T21:33:03.576Z,11.43
2019-05-09T21:35:39.521Z,11.39
2019-05-09T21:38:15.477Z,11.37
2019-05-09T21:40:51.422Z,11.33
2019-05-09T21:43:27.380Z,11.32
2019-05-09T21:46:03.336Z,11.31
2019-05-09T21:48:39.304Z,11.28
2019-05-09T21:51:15.259Z,11.28
2019-05-09T21:53:51.308Z,11.22
2019-05-09T21:56:27.262Z,11.21
2019-05-09T21:59:03.228Z,11.19
2019-05-09T22:01:39.625Z,11.15
2019-05-09T22:04:15.548Z,11.11
2019-05-09T22:06:51.610Z,11.05
2019-05-09T22:09:27.565Z,11.00
2019-05-09T22:12:03.749Z,10.95
2019-05-09T22:14:39.686Z,10.90
2019-05-09T22:17:17.272Z,10.83
2019-05-09T22:19:53.227Z,10.78
2019-05-09T22:22:29.388Z,10.72
2019-05-09T22:25:08.187Z,10.67
2019-05-09T22:27:44.166Z,10.62
2019-05-09T22:30:20.745Z,10.59
2019-05-09T22:32:56.706Z,10.58
2019-05-09T22:35:52.513Z,10.57
2019-05-09T22:38:30.624Z,10.56
2019-05-09T22:41:06.899Z,10.54
2019-05-09T22:43:42.854Z,10.51
2019-05-09T22:46:18.809Z,10.48
2019-05-09T22:48:54.869Z,10.40
2019-05-09T22:51:30.759Z,10.36
2019-05-09T22:54:12.546Z,10.30
2019-05-09T22:56:44.478Z,10.23
2019-05-09T22:59:20.424Z,10.19
2019-05-09T23:01:56.389Z,10.14
2019-05-09T23:04:32.349Z,10.08
2019-05-09T23:07:08.292Z,10.02
2019-05-09T23:09:44.268Z,10.00
2019-05-09T23:12:20.204Z,9.95
2019-05-09T23:14:56.367Z,9.94
2019-05-09T23:17:32.437Z,9.90
2019-05-09T23:20:10.656Z,9.91
2019-05-09T23:22:46.792Z,9.86
2019-05-09T23:25:22.751Z,9.85
2019-05-09T23:27:58.705Z,9.78
2019-05-09T23:30:34.664Z,9.78
2019-05-09T23:33:10.631Z,9.72
2019-05-09T23:35:46.589Z,9.69
2019-05-09T23:38:22.534Z,9.67
2019-05-09T23:40:58.542Z,9.64
2019-05-09T23:43:34.446Z,9.62
2019-05-09T23:46:10.406Z,9.56
2019-05-09T23:48:46.322Z,9.51
2019-05-09T23:51:22.633Z,9.47
2019-05-09T23:53:57.724Z,9.46
2019-05-09T23:56:51.441Z,9.38
2019-05-09T23:59:45.317Z,9.36
